createdAt,value
2022-07-29T00:03:02.164Z,92605.63
2022-07-29T00:06:05.691Z,92600.63
2022-07-29T00:09:10.046Z,92615.09
2022-07-29T00:12:13.625Z,92608.72
2022-07-29T00:15:17.946Z,92602.75
2022-07-29T00:18:21.467Z,92614.25
2022-07-29T00:21:25.358Z,92611.59
2022-07-29T00:24:29.052Z,92623.38
2022-07-29T00:27:32.555Z,92604.34
2022-07-29T00:30:36.210Z,92620.38
2022-07-29T00:33:40.237Z,92604.09
2022-07-29T00:36:47.071Z,92619.00
2022-07-29T00:39:51.048Z,92613.97
2022-07-29T00:42:54.856Z,92620.31
2022-07-29T00:46:00.546Z,92610.72
2022-07-29T00:49:04.413Z,92597.75
2022-07-29T00:52:09.564Z,92609.31
2022-07-29T00:55:15.195Z,92591.97
2022-07-29T00:58:19.193Z,92594.50
2022-07-29T01:01:22.817Z,92597.69
2022-07-29T01:04:27.148Z,92608.66
2022-07-29T01:07:33.705Z,92595.22
2022-07-29T01:10:40.369Z,92607.50
2022-07-29T01:13:45.788Z,92592.41
2022-07-29T01:17:10.275Z,92597.06
2022-07-29T01:20:32.600Z,92614.63
2022-07-29T01:23:50.820Z,92614.34
2022-07-29T01:27:18.182Z,92611.72
2022-07-29T01:30:26.772Z,92604.25
2022-07-29T01:33:52.842Z,92600.56
2022-07-29T01:37:15.195Z,92605.47
2022-07-29T01:40:52.955Z,92598.50
2022-07-29T01:44:04.955Z,92599.94
2022-07-29T01:47:17.306Z,92599.06
2022-07-29T01:50:25.603Z,92594.63
2022-07-29T01:53:38.257Z,92583.13
2022-07-29T01:56:44.457Z,92591.88
2022-07-29T01:59:49.214Z,92589.13
2022-07-29T02:02:55.248Z,92581.53
2022-07-29T02:06:00.003Z,92579.91
2022-07-29T02:09:05.519Z,92581.41
2022-07-29T02:12:13.433Z,92580.44
2022-07-29T02:15:19.087Z,92571.09
2022-07-29T02:18:25.707Z,92561.03
2022-07-29T02:21:32.803Z,92568.47
2022-07-29T02:24:38.692Z,92562.94
2022-07-29T02:27:44.670Z,92553.97
2022-07-29T02:30:49.718Z,92565.53
2022-07-29T02:33:55.861Z,92553.84
2022-07-29T02:36:59.921Z,92548.50
2022-07-29T02:40:04.762Z,92562.56
2022-07-29T02:43:10.868Z,92550.34
2022-07-29T02:46:29.079Z,92538.78
2022-07-29T02:49:40.469Z,92552.75
2022-07-29T02:52:49.706Z,92560.78
2022-07-29T02:56:13.306Z,92542.13
2022-07-29T02:59:22.375Z,92545.97
2022-07-29T03:02:28.855Z,92547.97
2022-07-29T03:05:37.025Z,92540.31
2022-07-29T03:08:42.341Z,92545.03
2022-07-29T03:11:50.493Z,92533.25
2022-07-29T03:14:55.909Z,92549.16
2022-07-29T03:18:00.781Z,92541.09
2022-07-29T03:21:05.299Z,92535.22
2022-07-29T03:24:12.577Z,92541.69
2022-07-29T03:27:16.284Z,92548.47
2022-07-29T03:30:22.080Z,92540.03
2022-07-29T03:33:25.479Z,92523.63
2022-07-29T03:36:29.334Z,92517.34
2022-07-29T03:39:37.170Z,92519.56
2022-07-29T03:42:42.933Z,92521.28
2022-07-29T03:45:49.817Z,92526.13
2022-07-29T03:49:00.487Z,92525.47
2022-07-29T03:52:04.357Z,92518.56
2022-07-29T03:55:09.769Z,92502.00
2022-07-29T03:58:15.139Z,92497.22
2022-07-29T04:01:20.575Z,92500.47
2022-07-29T04:04:24.274Z,92520.34
2022-07-29T04:07:31.715Z,92522.50
2022-07-29T04:10:35.729Z,92510.22
2022-07-29T04:13:39.853Z,92500.56
2022-07-29T04:16:43.056Z,92493.47
2022-07-29T04:19:46.949Z,92489.75
2022-07-29T04:22:50.557Z,92497.06
2022-07-29T04:25:54.520Z,92508.72
2022-07-29T04:28:57.739Z,92497.75
2022-07-29T04:32:01.619Z,92489.53
2022-07-29T04:35:05.486Z,92476.88
2022-07-29T04:38:15.937Z,92483.44
2022-07-29T04:41:20.922Z,92469.66
2022-07-29T04:44:28.669Z,92479.06
2022-07-29T04:47:32.766Z,92476.06
2022-07-29T04:50:36.386Z,92463.13
2022-07-29T04:53:40.232Z,92463.75
2022-07-29T04:56:44.352Z,92469.72
2022-07-29T04:59:47.867Z,92465.19
2022-07-29T05:02:52.156Z,92465.53
2022-07-29T05:05:57.864Z,92462.03
2022-07-29T05:09:01.740Z,92466.19
2022-07-29T05:12:05.140Z,92448.00
2022-07-29T05:15:09.672Z,92452.91
2022-07-29T05:18:12.966Z,92442.47
2022-07-29T05:21:16.952Z,92463.41
2022-07-29T05:24:20.716Z,92459.34
2022-07-29T05:27:24.605Z,92452.53
2022-07-29T05:30:28.193Z,92456.94
2022-07-29T05:33:36.105Z,92450.72
2022-07-29T05:36:40.305Z,92452.22
2022-07-29T05:39:49.016Z,92451.06
2022-07-29T05:42:53.995Z,92451.94
2022-07-29T05:45:58.762Z,92453.22
2022-07-29T05:49:04.231Z,92439.66
2022-07-29T05:52:08.246Z,92433.09
2022-07-29T05:55:12.181Z,92437.78
2022-07-29T05:58:17.378Z,92455.75
2022-07-29T06:01:21.764Z,92458.13
2022-07-29T06:04:25.842Z,92456.16
2022-07-29T06:07:29.499Z,92469.78
2022-07-29T06:10:37.917Z,92446.94
2022-07-29T06:13:41.611Z,92450.25
2022-07-29T06:16:45.276Z,92445.69
2022-07-29T06:19:49.187Z,92464.38
2022-07-29T06:22:52.765Z,92454.88
2022-07-29T06:25:56.388Z,92467.53
2022-07-29T06:29:00.165Z,92460.63
2022-07-29T06:32:04.592Z,92456.28
2022-07-29T06:35:37.614Z,92444.47
2022-07-29T06:38:34.376Z,92436.47
2022-07-29T06:41:43.990Z,92433.47
2022-07-29T06:44:49.879Z,92430.41
2022-07-29T06:47:54.440Z,92451.13
2022-07-29T06:50:58.429Z,92442.19
2022-07-29T06:54:03.311Z,92447.09
2022-07-29T06:57:07.667Z,92456.91
2022-07-29T07:00:11.879Z,92463.84
2022-07-29T07:03:17.093Z,92467.59
2022-07-29T07:06:20.549Z,92468.88
2022-07-29T07:09:24.647Z,92473.97
2022-07-29T07:12:43.875Z,92454.38
2022-07-29T07:15:50.267Z,92438.16
2022-07-29T07:18:53.750Z,92453.53
2022-07-29T07:21:58.198Z,92452.00
2022-07-29T07:25:01.795Z,92465.34
2022-07-29T07:28:05.517Z,92460.28
2022-07-29T07:31:09.123Z,92468.22
2022-07-29T07:34:13.637Z,92462.22
2022-07-29T07:37:18.677Z,92463.81
2022-07-29T07:40:22.874Z,92457.06
2022-07-29T07:43:26.592Z,92458.22
2022-07-29T07:46:30.434Z,92451.66
2022-07-29T07:49:34.024Z,92437.03
2022-07-29T07:52:51.749Z,92436.19
2022-07-29T07:56:12.075Z,92436.06
2022-07-29T07:59:16.228Z,92444.63
2022-07-29T08:02:20.266Z,92446.94
2022-07-29T08:05:24.464Z,92450.59
2022-07-29T08:08:28.012Z,92454.50
2022-07-29T08:11:31.719Z,92444.06
2022-07-29T08:14:39.319Z,92453.66
2022-07-29T08:17:43.457Z,92441.72
2022-07-29T08:20:46.810Z,92442.81
2022-07-29T08:23:58.677Z,92435.03
2022-07-29T08:27:09.825Z,92430.22
2022-07-29T08:30:25.452Z,92429.47
2022-07-29T08:33:28.712Z,92427.84
2022-07-29T08:36:34.147Z,92437.94
2022-07-29T08:39:37.348Z,92421.22
2022-07-29T08:42:41.379Z,92433.31
2022-07-29T08:45:49.996Z,92430.97
2022-07-29T08:48:54.287Z,92432.13
2022-07-29T08:52:00.391Z,92422.88
2022-07-29T08:55:05.184Z,92429.03
2022-07-29T08:58:09.238Z,92418.81
2022-07-29T09:01:23.863Z,92423.13
2022-07-29T09:04:41.320Z,92426.09
2022-07-29T09:07:49.178Z,92430.34
2022-07-29T09:10:53.354Z,92407.31
2022-07-29T09:13:57.444Z,92423.34
2022-07-29T09:17:01.695Z,92407.34
2022-07-29T09:20:20.591Z,92409.13
2022-07-29T09:23:27.146Z,92416.13
2022-07-29T09:26:33.044Z,92395.75
2022-07-29T09:29:38.538Z,92402.16
2022-07-29T09:33:03.243Z,92410.53
2022-07-29T09:36:11.091Z,92399.66
2022-07-29T09:39:17.829Z,92407.16
2022-07-29T09:42:31.328Z,92408.88
2022-07-29T09:45:36.158Z,92405.94
2022-07-29T09:48:39.906Z,92409.75
2022-07-29T09:51:44.026Z,92400.69
2022-07-29T09:54:47.834Z,92412.03
2022-07-29T09:57:51.403Z,92411.19
2022-07-29T10:00:56.906Z,92413.66
2022-07-29T10:04:00.875Z,92418.25
2022-07-29T10:07:06.583Z,92419.00
2022-07-29T10:10:10.627Z,92414.91
2022-07-29T10:13:16.562Z,92408.75
2022-07-29T10:16:20.756Z,92402.88
2022-07-29T10:19:25.300Z,92398.50
2022-07-29T10:22:51.775Z,92403.56
2022-07-29T10:25:53.005Z,92393.00
2022-07-29T10:28:57.439Z,92398.28
2022-07-29T10:32:27.902Z,92398.97
2022-07-29T10:35:45.633Z,92384.50
2022-07-29T10:38:49.903Z,92388.91
2022-07-29T10:42:16.987Z,92382.25
2022-07-29T10:45:24.552Z,92389.09
2022-07-29T10:48:28.175Z,92384.16
2022-07-29T10:52:01.065Z,92385.78
2022-07-29T10:55:06.371Z,92380.31
2022-07-29T10:58:27.327Z,92381.34
2022-07-29T11:01:37.178Z,92385.53
2022-07-29T11:04:56.862Z,92390.47
2022-07-29T11:08:19.918Z,92397.69
2022-07-29T11:11:29.665Z,92397.72
2022-07-29T11:15:20.423Z,92395.09
2022-07-29T11:18:25.584Z,92390.69
2022-07-29T11:22:05.177Z,92382.66
2022-07-29T11:25:50.354Z,92398.34
2022-07-29T11:28:53.759Z,92405.34
2022-07-29T11:32:10.682Z,92377.16
2022-07-29T11:35:37.383Z,92399.56
2022-07-29T11:38:43.017Z,92397.69
2022-07-29T11:41:46.551Z,92396.22
2022-07-29T11:44:57.730Z,92402.69
2022-07-29T11:48:29.058Z,92391.75
2022-07-29T11:51:32.721Z,92395.91
2022-07-29T11:58:04.586Z,92402.44
2022-07-29T12:01:08.739Z,92404.34
2022-07-29T12:04:12.324Z,92402.84
2022-07-29T12:07:03.711Z,92399.00
2022-07-29T12:07:18.243Z,92397.69
2022-07-29T12:10:30.054Z,92390.22
2022-07-29T12:13:41.735Z,92389.19
2022-07-29T12:16:45.438Z,92408.59
2022-07-29T12:19:50.988Z,92396.38
2022-07-29T12:22:56.028Z,92389.47
2022-07-29T12:26:01.287Z,92397.81
2022-07-29T12:29:14.787Z,92383.03
2022-07-29T12:32:24.410Z,92388.03
2022-07-29T12:35:28.748Z,92384.34
2022-07-29T12:38:36.388Z,92390.06
2022-07-29T12:41:40.664Z,92386.88
2022-07-29T12:44:49.306Z,92389.75
2022-07-29T12:47:53.916Z,92378.00
2022-07-29T12:51:00.358Z,92376.66
2022-07-29T12:54:17.701Z,92387.88
2022-07-29T12:57:21.965Z,92377.53
2022-07-29T13:00:26.194Z,92376.47
2022-07-29T13:03:35.757Z,92365.66
2022-07-29T13:06:46.139Z,92380.00
2022-07-29T13:09:53.756Z,92381.81
2022-07-29T13:13:15.159Z,92365.31
2022-07-29T13:16:19.222Z,92362.16
2022-07-29T13:19:42.021Z,92372.41
2022-07-29T13:22:50.556Z,92365.41
2022-07-29T13:25:54.593Z,92365.88
2022-07-29T13:28:58.579Z,92369.81
2022-07-29T13:32:02.891Z,92362.44
2022-07-29T13:35:08.771Z,92360.00
2022-07-29T13:38:12.917Z,92371.06
2022-07-29T13:41:16.550Z,92355.59
2022-07-29T13:44:21.630Z,92358.13
2022-07-29T13:47:32.322Z,92324.75
2022-07-29T13:50:37.112Z,92349.78
2022-07-29T13:53:40.655Z,92348.56
2022-07-29T13:56:44.560Z,92330.56
2022-07-29T13:59:53.965Z,92323.97
2022-07-29T14:02:58.606Z,92322.56
2022-07-29T14:06:02.299Z,92316.69
2022-07-29T14:09:13.137Z,92330.31
2022-07-29T14:12:16.794Z,92328.53
2022-07-29T14:15:22.885Z,92318.25
2022-07-29T14:18:26.369Z,92330.53
2022-07-29T14:21:30.162Z,92315.97
2022-07-29T14:24:36.970Z,92318.59
2022-07-29T14:27:41.248Z,92309.56
2022-07-29T14:30:45.718Z,92308.06
2022-07-29T14:33:49.512Z,92309.00
2022-07-29T14:36:53.175Z,92306.97
2022-07-29T14:40:01.208Z,92311.72
2022-07-29T14:43:05.684Z,92313.13
2022-07-29T14:46:09.870Z,92316.41
2022-07-29T14:49:13.531Z,92331.09
2022-07-29T14:52:17.596Z,92322.13
2022-07-29T14:55:21.464Z,92326.22
2022-07-29T14:58:25.724Z,92341.34
2022-07-29T15:01:29.443Z,92342.25
2022-07-29T15:04:36.518Z,92338.97
2022-07-29T15:07:39.788Z,92343.25
2022-07-29T15:10:43.801Z,92336.69
2022-07-29T15:13:47.526Z,92341.66
2022-07-29T15:16:52.899Z,92343.50
2022-07-29T15:19:56.500Z,92355.53
2022-07-29T15:23:00.472Z,92337.41
2022-07-29T15:26:04.576Z,92349.56
2022-07-29T15:29:08.155Z,92353.19
2022-07-29T15:32:13.005Z,92356.38
2022-07-29T15:35:16.280Z,92358.16
2022-07-29T15:38:20.240Z,92352.91
2022-07-29T15:41:32.648Z,92362.69
2022-07-29T15:44:37.043Z,92356.63
2022-07-29T15:47:40.206Z,92361.56
2022-07-29T15:50:46.940Z,92367.94
2022-07-29T15:53:53.614Z,92378.03
2022-07-29T15:56:57.916Z,92387.38
2022-07-29T16:00:01.865Z,92382.09
2022-07-29T16:03:11.073Z,92391.03
2022-07-29T16:06:15.226Z,92374.69
2022-07-29T16:09:19.573Z,92373.88
2022-07-29T16:12:23.044Z,92382.75
2022-07-29T16:15:27.107Z,92365.84
2022-07-29T16:18:31.495Z,92385.91
2022-07-29T16:21:36.248Z,92375.88
2022-07-29T16:24:40.248Z,92393.25
2022-07-29T16:27:43.974Z,92389.78
2022-07-29T16:30:47.493Z,92374.94
2022-07-29T16:33:54.902Z,92370.25
2022-07-29T16:36:59.745Z,92391.09
2022-07-29T16:40:05.148Z,92374.31
2022-07-29T16:43:09.364Z,92383.28
2022-07-29T16:46:14.681Z,92374.13
2022-07-29T16:49:22.760Z,92366.81
2022-07-29T16:52:26.658Z,92372.63
2022-07-29T16:55:30.265Z,92367.56
2022-07-29T16:58:34.300Z,92376.50
2022-07-29T17:01:37.675Z,92371.72
2022-07-29T17:04:41.773Z,92369.59
2022-07-29T17:07:45.546Z,92375.47
2022-07-29T17:10:49.657Z,92376.19
2022-07-29T17:13:52.898Z,92363.41
2022-07-29T17:17:01.992Z,92366.16
2022-07-29T17:20:07.840Z,92351.09
2022-07-29T17:23:11.475Z,92359.31
2022-07-29T17:26:15.816Z,92361.03
2022-07-29T17:29:19.170Z,92360.03
2022-07-29T17:32:23.059Z,92338.38
2022-07-29T17:35:45.211Z,92382.66
2022-07-29T17:38:49.669Z,92383.00
2022-07-29T17:41:53.314Z,92371.22
2022-07-29T17:44:57.200Z,92377.78
2022-07-29T17:48:00.986Z,92373.06
2022-07-29T17:51:05.311Z,92379.84
2022-07-29T17:54:08.968Z,92376.81
2022-07-29T17:57:13.263Z,92386.13
2022-07-29T18:00:17.001Z,92379.00
2022-07-29T18:03:21.403Z,92374.03
2022-07-29T18:06:25.172Z,92360.38
2022-07-29T18:09:29.547Z,92364.66
2022-07-29T18:12:33.399Z,92377.13
2022-07-29T18:15:37.534Z,92368.28
2022-07-29T18:18:41.359Z,92379.16
2022-07-29T18:21:51.172Z,92374.75
2022-07-29T18:24:59.188Z,92372.59
2022-07-29T18:28:03.429Z,92369.38
2022-07-29T18:31:07.273Z,92365.91
2022-07-29T18:34:11.177Z,92353.16
2022-07-29T18:37:15.017Z,92364.75
2022-07-29T18:40:20.658Z,92366.31
2022-07-29T18:43:24.423Z,92357.38
2022-07-29T18:46:28.578Z,92355.09
2022-07-29T18:49:32.530Z,92346.44
2022-07-29T18:52:36.717Z,92350.56
2022-07-29T18:55:40.190Z,92348.97
2022-07-29T18:58:44.440Z,92347.03
2022-07-29T19:01:49.341Z,92358.00
2022-07-29T19:04:53.276Z,92367.84
2022-07-29T19:07:57.033Z,92363.59
2022-07-29T19:11:01.182Z,92368.09
2022-07-29T19:14:05.999Z,92365.91
2022-07-29T19:17:10.085Z,92348.97
2022-07-29T19:20:15.105Z,92375.03
2022-07-29T19:23:19.380Z,92350.78
2022-07-29T19:26:22.943Z,92356.63
2022-07-29T19:29:29.619Z,92356.03
2022-07-29T19:32:33.583Z,92335.56
2022-07-29T19:35:37.213Z,92335.09
2022-07-29T19:38:41.398Z,92343.88
2022-07-29T19:41:44.991Z,92338.94
2022-07-29T19:44:48.920Z,92335.66
2022-07-29T19:47:54.738Z,92338.28
2022-07-29T19:51:01.684Z,92326.38
2022-07-29T19:54:06.853Z,92338.88
2022-07-29T19:57:11.004Z,92338.31
2022-07-29T20:00:15.326Z,92340.59
2022-07-29T20:03:19.707Z,92316.34
2022-07-29T20:06:23.603Z,92327.28
2022-07-29T20:09:29.027Z,92326.25
2022-07-29T20:12:33.234Z,92335.06
2022-07-29T20:15:37.310Z,92324.25
2022-07-29T20:18:40.903Z,92334.03
2022-07-29T20:21:44.942Z,92331.50
2022-07-29T20:24:48.509Z,92313.28
2022-07-29T20:27:53.400Z,92319.56
2022-07-29T20:30:57.032Z,92305.06
2022-07-29T20:34:01.451Z,92306.81
2022-07-29T20:37:05.124Z,92304.31
2022-07-29T20:40:12.452Z,92309.31
2022-07-29T20:43:15.837Z,92328.22
2022-07-29T20:46:20.135Z,92309.44
2022-07-29T20:49:23.880Z,92304.44
2022-07-29T20:52:27.768Z,92315.00
2022-07-29T20:55:32.530Z,92312.06
2022-07-29T20:58:37.172Z,92304.44
2022-07-29T21:01:40.525Z,92306.53
2022-07-29T21:04:44.623Z,92295.28
2022-07-29T21:07:47.732Z,92299.63
2022-07-29T21:10:52.072Z,92268.28
2022-07-29T21:13:55.260Z,92274.72
2022-07-29T21:16:59.163Z,92247.56
2022-07-29T21:20:05.015Z,92248.00
2022-07-29T21:23:09.215Z,92251.25
2022-07-29T21:26:13.273Z,92247.47
2022-07-29T21:29:17.155Z,92230.75
2022-07-29T21:32:27.356Z,92241.09
2022-07-29T21:36:01.996Z,92232.97
2022-07-29T21:38:57.591Z,92242.28
2022-07-29T21:42:01.201Z,92255.72
2022-07-29T21:45:06.056Z,92251.22
2022-07-29T21:48:10.321Z,92245.97
2022-07-29T21:51:13.752Z,92254.22
2022-07-29T21:54:17.798Z,92253.69
2022-07-29T21:57:21.426Z,92259.19
2022-07-29T22:00:29.694Z,92259.19
2022-07-29T22:03:33.245Z,92252.25
2022-07-29T22:06:37.386Z,92255.31
2022-07-29T22:09:40.893Z,92242.50
2022-07-29T22:12:44.956Z,92227.78
2022-07-29T22:15:48.109Z,92234.59
2022-07-29T22:18:52.189Z,92227.28
2022-07-29T22:21:55.503Z,92212.94
2022-07-29T22:24:59.874Z,92219.44
2022-07-29T22:28:03.538Z,92226.06
2022-07-29T22:31:07.925Z,92239.56
2022-07-29T22:34:13.934Z,92245.16
2022-07-29T22:37:18.227Z,92251.34
2022-07-29T22:40:22.577Z,92223.59
2022-07-29T22:43:33.527Z,92212.81
2022-07-29T22:46:37.052Z,92233.75
2022-07-29T22:49:40.604Z,92257.47
2022-07-29T22:52:44.373Z,92245.44
2022-07-29T22:55:47.851Z,92249.63
2022-07-29T22:58:51.498Z,92281.53
2022-07-29T23:01:55.519Z,92295.47
2022-07-29T23:04:59.172Z,92281.34
2022-07-29T23:08:03.198Z,92276.88
2022-07-29T23:11:06.771Z,92269.50
2022-07-29T23:14:10.886Z,92255.00
2022-07-29T23:17:14.477Z,92257.22
2022-07-29T23:20:18.733Z,92254.47
2022-07-29T23:23:22.091Z,92257.03
2022-07-29T23:26:26.175Z,92241.50
2022-07-29T23:29:32.736Z,92247.03
2022-07-29T23:32:38.708Z,92256.91
2022-07-29T23:35:42.336Z,92256.44
2022-07-29T23:38:47.546Z,92254.47
2022-07-29T23:41:51.922Z,92260.22
2022-07-29T23:44:55.976Z,92251.75
2022-07-29T23:47:59.587Z,92257.34
2022-07-29T23:51:03.208Z,92244.50
2022-07-29T23:54:06.903Z,92239.06
2022-07-29T23:57:10.826Z,92235.41
